Hanalei, Hawaii
Current Conditions -  °F | °C
As of 8:53 AM on Thursday 30 Oct 2014 (Local Time) from PHLI Reporting Station
Scattered Clouds Scattered Clouds  
Wind Chill: 26°   Ceiling: Unl
Heat Index: 27°   Visibility: 10mi
Dew Point: 22°   Wind: 17mph
Humidity: 79%   Direction: 40°NE
Pressure: 30.13"   Gusts: NA
Location:  22.2°N, 159.49°W
Report Text: PHLI 301853Z 04015KT 10SM FEW024 SCT065 26/22 A3013 RMK AO2 SLP199 T02560217 $
Loading
Personal Weather Stations






























Interactive Weather Map
Tropical Storm Tracking
New forecast layout! Learn more

10-Day Weather Forecast

Advertisements
Track Severe Weather on mobile